sensor_id;sensor_type;location;lat;lon;timestamp;P1;durP1;ratioP1;P2;durP2;ratioP2
46355;SDS011;32066;49.474;11.106;2022-10-16T00:01:08;5.35;;;1.60;;
46355;SDS011;32066;49.474;11.106;2022-10-16T00:03:36;7.47;;;2.00;;
46355;SDS011;32066;49.474;11.106;2022-10-16T00:06:04;9.15;;;1.85;;
46355;SDS011;32066;49.474;11.106;2022-10-16T00:08:31;6.53;;;1.92;;
46355;SDS011;32066;49.474;11.106;2022-10-16T00:10:59;6.68;;;1.95;;
46355;SDS011;32066;49.474;11.106;2022-10-16T00:13:28;4.68;;;1.70;;
46355;SDS011;32066;49.474;11.106;2022-10-16T00:15:55;5.32;;;1.98;;
46355;SDS011;32066;49.474;11.106;2022-10-16T00:18:24;4.85;;;1.85;;
46355;SDS011;32066;49.474;11.106;2022-10-16T00:20:51;5.32;;;1.98;;
46355;SDS011;32066;49.474;11.106;2022-10-16T00:23:18;5.00;;;1.70;;
46355;SDS011;32066;49.474;11.106;2022-10-16T00:25:45;4.85;;;1.85;;
46355;SDS011;32066;49.474;11.106;2022-10-16T00:28:21;4.63;;;1.77;;
46355;SDS011;32066;49.474;11.106;2022-10-16T00:30:49;5.85;;;1.80;;
46355;SDS011;32066;49.474;11.106;2022-10-16T00:33:15;8.43;;;2.30;;
46355;SDS011;32066;49.474;11.106;2022-10-16T00:35:44;7.82;;;1.95;;
46355;SDS011;32066;49.474;11.106;2022-10-16T00:38:10;12.50;;;2.63;;
46355;SDS011;32066;49.474;11.106;2022-10-16T00:40:38;7.32;;;2.13;;
46355;SDS011;32066;49.474;11.106;2022-10-16T00:43:08;4.63;;;1.75;;
46355;SDS011;32066;49.474;11.106;2022-10-16T00:45:38;4.95;;;2.00;;
46355;SDS011;32066;49.474;11.106;2022-10-16T00:48:06;6.15;;;1.98;;
46355;SDS011;32066;49.474;11.106;2022-10-16T00:50:38;5.50;;;1.75;;
46355;SDS011;32066;49.474;11.106;2022-10-16T00:53:09;6.35;;;2.03;;
46355;SDS011;32066;49.474;11.106;2022-10-16T00:55:37;3.75;;;1.77;;
46355;SDS011;32066;49.474;11.106;2022-10-16T00:58:04;4.78;;;1.95;;
46355;SDS011;32066;49.474;11.106;2022-10-16T01:00:31;6.43;;;1.88;;
46355;SDS011;32066;49.474;11.106;2022-10-16T01:02:59;5.93;;;2.00;;
46355;SDS011;32066;49.474;11.106;2022-10-16T01:05:27;7.95;;;2.10;;
46355;SDS011;32066;49.474;11.106;2022-10-16T01:08:01;6.05;;;1.70;;
46355;SDS011;32066;49.474;11.106;2022-10-16T01:10:38;7.18;;;2.03;;
46355;SDS011;32066;49.474;11.106;2022-10-16T01:13:09;6.78;;;1.77;;
46355;SDS011;32066;49.474;11.106;2022-10-16T01:15:40;4.53;;;1.95;;
46355;SDS011;32066;49.474;11.106;2022-10-16T01:18:13;8.10;;;2.15;;
46355;SDS011;32066;49.474;11.106;2022-10-16T01:20:44;3.83;;;1.90;;
46355;SDS011;32066;49.474;11.106;2022-10-16T01:23:16;6.18;;;1.90;;
46355;SDS011;32066;49.474;11.106;2022-10-16T01:25:57;6.47;;;2.25;;
46355;SDS011;32066;49.474;11.106;2022-10-16T01:28:38;5.03;;;1.92;;
46355;SDS011;32066;49.474;11.106;2022-10-16T01:31:08;6.22;;;1.80;;
46355;SDS011;32066;49.474;11.106;2022-10-16T01:33:42;6.63;;;1.67;;
46355;SDS011;32066;49.474;11.106;2022-10-16T01:36:12;13.52;;;2.25;;
46355;SDS011;32066;49.474;11.106;2022-10-16T01:38:41;5.70;;;1.98;;
46355;SDS011;32066;49.474;11.106;2022-10-16T01:41:13;4.43;;;1.85;;
46355;SDS011;32066;49.474;11.106;2022-10-16T01:43:46;6.07;;;1.70;;
46355;SDS011;32066;49.474;11.106;2022-10-16T01:46:16;6.90;;;1.88;;
46355;SDS011;32066;49.474;11.106;2022-10-16T01:48:46;4.47;;;1.77;;
46355;SDS011;32066;49.474;11.106;2022-10-16T01:51:15;5.80;;;1.90;;
46355;SDS011;32066;49.474;11.106;2022-10-16T01:53:45;6.07;;;2.00;;
46355;SDS011;32066;49.474;11.106;2022-10-16T01:56:16;5.00;;;1.95;;
46355;SDS011;32066;49.474;11.106;2022-10-16T01:58:47;6.05;;;2.10;;
46355;SDS011;32066;49.474;11.106;2022-10-16T02:01:19;6.20;;;1.98;;
46355;SDS011;32066;49.474;11.106;2022-10-16T02:03:49;7.53;;;1.98;;
46355;SDS011;32066;49.474;11.106;2022-10-16T02:06:19;4.03;;;1.67;;
46355;SDS011;32066;49.474;11.106;2022-10-16T02:08:46;4.45;;;1.80;;
46355;SDS011;32066;49.474;11.106;2022-10-16T02:11:13;6.93;;;2.00;;
46355;SDS011;32066;49.474;11.106;2022-10-16T02:13:41;4.40;;;1.80;;
46355;SDS011;32066;49.474;11.106;2022-10-16T02:16:14;8.88;;;1.92;;
46355;SDS011;32066;49.474;11.106;2022-10-16T02:18:41;5.82;;;2.00;;
46355;SDS011;32066;49.474;11.106;2022-10-16T02:21:10;5.38;;;1.80;;
46355;SDS011;32066;49.474;11.106;2022-10-16T02:23:43;5.97;;;1.85;;
46355;SDS011;32066;49.474;11.106;2022-10-16T02:26:15;5.18;;;1.90;;
46355;SDS011;32066;49.474;11.106;2022-10-16T02:28:52;5.15;;;1.77;;
46355;SDS011;32066;49.474;11.106;2022-10-16T02:31:25;5.30;;;1.85;;
46355;SDS011;32066;49.474;11.106;2022-10-16T02:33:59;4.85;;;1.90;;
46355;SDS011;32066;49.474;11.106;2022-10-16T02:36:28;5.03;;;1.70;;
46355;SDS011;32066;49.474;11.106;2022-10-16T02:38:55;5.70;;;1.67;;
46355;SDS011;32066;49.474;11.106;2022-10-16T02:41:22;4.32;;;1.90;;
46355;SDS011;32066;49.474;11.106;2022-10-16T02:43:50;5.38;;;1.85;;
46355;SDS011;32066;49.474;11.106;2022-10-16T02:46:17;4.32;;;1.70;;
46355;SDS011;32066;49.474;11.106;2022-10-16T02:48:45;3.92;;;1.75;;
46355;SDS011;32066;49.474;11.106;2022-10-16T02:51:12;4.30;;;1.65;;
46355;SDS011;32066;49.474;11.106;2022-10-16T02:53:39;6.00;;;1.98;;
46355;SDS011;32066;49.474;11.106;2022-10-16T02:56:06;5.22;;;2.20;;
46355;SDS011;32066;49.474;11.106;2022-10-16T02:58:33;4.72;;;1.60;;
46355;SDS011;32066;49.474;11.106;2022-10-16T03:01:00;5.45;;;1.70;;
46355;SDS011;32066;49.474;11.106;2022-10-16T03:03:27;5.28;;;1.70;;
46355;SDS011;32066;49.474;11.106;2022-10-16T03:05:55;4.85;;;1.65;;
46355;SDS011;32066;49.474;11.106;2022-10-16T03:08:22;4.80;;;1.70;;
46355;SDS011;32066;49.474;11.106;2022-10-16T03:10:50;5.57;;;1.85;;
46355;SDS011;32066;49.474;11.106;2022-10-16T03:13:18;6.75;;;1.70;;
46355;SDS011;32066;49.474;11.106;2022-10-16T03:15:46;8.80;;;1.88;;
46355;SDS011;32066;49.474;11.106;2022-10-16T03:18:13;8.30;;;1.92;;
46355;SDS011;32066;49.474;11.106;2022-10-16T03:20:40;4.05;;;1.50;;
46355;SDS011;32066;49.474;11.106;2022-10-16T03:23:10;5.15;;;1.90;;
46355;SDS011;32066;49.474;11.106;2022-10-16T03:25:37;4.30;;;1.95;;
46355;SDS011;32066;49.474;11.106;2022-10-16T03:28:04;6.50;;;1.83;;
46355;SDS011;32066;49.474;11.106;2022-10-16T03:30:31;4.18;;;1.80;;
46355;SDS011;32066;49.474;11.106;2022-10-16T03:32:58;4.85;;;1.73;;
46355;SDS011;32066;49.474;11.106;2022-10-16T03:35:24;5.15;;;1.73;;
46355;SDS011;32066;49.474;11.106;2022-10-16T03:37:52;3.40;;;1.67;;
46355;SDS011;32066;49.474;11.106;2022-10-16T03:40:20;6.63;;;1.95;;
46355;SDS011;32066;49.474;11.106;2022-10-16T03:42:47;5.05;;;1.70;;
46355;SDS011;32066;49.474;11.106;2022-10-16T03:45:14;5.63;;;1.60;;
46355;SDS011;32066;49.474;11.106;2022-10-16T03:47:40;5.13;;;1.90;;
46355;SDS011;32066;49.474;11.106;2022-10-16T03:50:07;6.13;;;2.00;;
46355;SDS011;32066;49.474;11.106;2022-10-16T03:52:34;6.32;;;2.17;;
46355;SDS011;32066;49.474;11.106;2022-10-16T03:55:01;4.43;;;1.98;;
46355;SDS011;32066;49.474;11.106;2022-10-16T03:57:29;6.20;;;1.60;;
46355;SDS011;32066;49.474;11.106;2022-10-16T03:59:56;4.53;;;1.90;;
46355;SDS011;32066;49.474;11.106;2022-10-16T04:02:23;5.38;;;1.80;;
46355;SDS011;32066;49.474;11.106;2022-10-16T04:04:50;6.35;;;1.90;;
46355;SDS011;32066;49.474;11.106;2022-10-16T04:07:16;7.63;;;1.83;;
46355;SDS011;32066;49.474;11.106;2022-10-16T04:09:43;5.30;;;1.90;;
46355;SDS011;32066;49.474;11.106;2022-10-16T04:12:10;3.92;;;1.65;;
46355;SDS011;32066;49.474;11.106;2022-10-16T04:14:38;7.43;;;2.05;;
46355;SDS011;32066;49.474;11.106;2022-10-16T04:17:05;4.55;;;1.50;;
46355;SDS011;32066;49.474;11.106;2022-10-16T04:19:32;3.42;;;1.60;;
46355;SDS011;32066;49.474;11.106;2022-10-16T04:21:58;7.55;;;1.80;;
46355;SDS011;32066;49.474;11.106;2022-10-16T04:24:25;5.28;;;1.92;;
46355;SDS011;32066;49.474;11.106;2022-10-16T04:26:52;4.90;;;1.85;;
46355;SDS011;32066;49.474;11.106;2022-10-16T04:29:19;4.72;;;1.75;;
46355;SDS011;32066;49.474;11.106;2022-10-16T04:31:47;9.40;;;1.73;;
46355;SDS011;32066;49.474;11.106;2022-10-16T04:34:14;4.47;;;1.80;;
46355;SDS011;32066;49.474;11.106;2022-10-16T04:36:41;5.50;;;1.85;;
46355;SDS011;32066;49.474;11.106;2022-10-16T04:39:08;3.67;;;1.60;;
46355;SDS011;32066;49.474;11.106;2022-10-16T04:41:34;3.92;;;1.73;;
46355;SDS011;32066;49.474;11.106;2022-10-16T04:44:01;4.57;;;1.60;;
46355;SDS011;32066;49.474;11.106;2022-10-16T04:46:28;3.50;;;1.58;;
46355;SDS011;32066;49.474;11.106;2022-10-16T04:48:56;4.65;;;1.92;;
46355;SDS011;32066;49.474;11.106;2022-10-16T04:51:23;5.45;;;1.80;;
46355;SDS011;32066;49.474;11.106;2022-10-16T04:53:50;5.45;;;1.70;;
46355;SDS011;32066;49.474;11.106;2022-10-16T04:56:17;5.10;;;1.90;;
46355;SDS011;32066;49.474;11.106;2022-10-16T04:58:44;3.25;;;1.63;;
46355;SDS011;32066;49.474;11.106;2022-10-16T05:01:11;3.80;;;1.60;;
46355;SDS011;32066;49.474;11.106;2022-10-16T05:03:38;4.88;;;1.70;;
46355;SDS011;32066;49.474;11.106;2022-10-16T05:06:06;5.20;;;1.77;;
46355;SDS011;32066;49.474;11.106;2022-10-16T05:08:33;6.45;;;1.90;;
46355;SDS011;32066;49.474;11.106;2022-10-16T05:11:00;3.60;;;1.60;;
46355;SDS011;32066;49.474;11.106;2022-10-16T05:13:27;6.95;;;1.80;;
46355;SDS011;32066;49.474;11.106;2022-10-16T05:15:54;4.38;;;1.80;;
46355;SDS011;32066;49.474;11.106;2022-10-16T05:18:22;6.82;;;1.80;;
46355;SDS011;32066;49.474;11.106;2022-10-16T05:20:49;6.18;;;1.75;;
46355;SDS011;32066;49.474;11.106;2022-10-16T05:23:17;6.57;;;1.80;;
46355;SDS011;32066;49.474;11.106;2022-10-16T05:25:51;4.32;;;1.65;;
46355;SDS011;32066;49.474;11.106;2022-10-16T05:28:20;6.20;;;2.15;;
46355;SDS011;32066;49.474;11.106;2022-10-16T05:30:47;7.45;;;1.85;;
46355;SDS011;32066;49.474;11.106;2022-10-16T05:33:14;5.75;;;2.10;;
46355;SDS011;32066;49.474;11.106;2022-10-16T05:35:40;6.13;;;1.90;;
46355;SDS011;32066;49.474;11.106;2022-10-16T05:38:07;4.60;;;1.75;;
46355;SDS011;32066;49.474;11.106;2022-10-16T05:40:35;4.82;;;2.10;;
46355;SDS011;32066;49.474;11.106;2022-10-16T05:43:02;6.15;;;2.08;;
46355;SDS011;32066;49.474;11.106;2022-10-16T05:45:29;5.78;;;2.10;;
46355;SDS011;32066;49.474;11.106;2022-10-16T05:47:57;4.65;;;1.80;;
46355;SDS011;32066;49.474;11.106;2022-10-16T05:50:23;7.05;;;2.08;;
46355;SDS011;32066;49.474;11.106;2022-10-16T05:52:50;4.40;;;1.92;;
46355;SDS011;32066;49.474;11.106;2022-10-16T05:55:17;10.60;;;2.20;;
46355;SDS011;32066;49.474;11.106;2022-10-16T05:57:45;5.63;;;2.15;;
46355;SDS011;32066;49.474;11.106;2022-10-16T06:00:12;7.50;;;2.10;;
46355;SDS011;32066;49.474;11.106;2022-10-16T06:02:39;6.22;;;2.30;;
46355;SDS011;32066;49.474;11.106;2022-10-16T06:05:06;5.97;;;2.40;;
46355;SDS011;32066;49.474;11.106;2022-10-16T06:07:34;6.35;;;2.35;;
46355;SDS011;32066;49.474;11.106;2022-10-16T06:10:01;5.07;;;2.30;;
46355;SDS011;32066;49.474;11.106;2022-10-16T06:12:29;5.07;;;2.50;;
46355;SDS011;32066;49.474;11.106;2022-10-16T06:14:58;7.38;;;2.80;;
46355;SDS011;32066;49.474;11.106;2022-10-16T06:17:25;6.55;;;2.55;;
46355;SDS011;32066;49.474;11.106;2022-10-16T06:19:51;6.60;;;2.58;;
46355;SDS011;32066;49.474;11.106;2022-10-16T06:22:18;5.50;;;2.58;;
46355;SDS011;32066;49.474;11.106;2022-10-16T06:24:45;5.13;;;2.80;;
46355;SDS011;32066;49.474;11.106;2022-10-16T06:27:12;5.63;;;2.20;;
46355;SDS011;32066;49.474;11.106;2022-10-16T06:29:39;3.95;;;2.17;;
46355;SDS011;32066;49.474;11.106;2022-10-16T06:32:09;5.45;;;2.30;;
46355;SDS011;32066;49.474;11.106;2022-10-16T06:34:36;5.85;;;2.38;;
46355;SDS011;32066;49.474;11.106;2022-10-16T06:37:05;5.88;;;2.15;;
46355;SDS011;32066;49.474;11.106;2022-10-16T06:39:31;4.88;;;2.25;;
46355;SDS011;32066;49.474;11.106;2022-10-16T06:41:58;5.35;;;2.35;;
46355;SDS011;32066;49.474;11.106;2022-10-16T06:44:31;4.95;;;1.80;;
46355;SDS011;32066;49.474;11.106;2022-10-16T06:46:58;4.07;;;1.80;;
46355;SDS011;32066;49.474;11.106;2022-10-16T06:49:26;5.90;;;2.10;;
46355;SDS011;32066;49.474;11.106;2022-10-16T06:51:54;4.07;;;2.00;;
46355;SDS011;32066;49.474;11.106;2022-10-16T06:54:21;5.30;;;2.10;;
46355;SDS011;32066;49.474;11.106;2022-10-16T06:56:47;5.07;;;1.92;;
46355;SDS011;32066;49.474;11.106;2022-10-16T06:59:14;4.45;;;1.80;;
46355;SDS011;32066;49.474;11.106;2022-10-16T07:01:41;4.28;;;2.20;;
46355;SDS011;32066;49.474;11.106;2022-10-16T07:04:08;5.72;;;2.00;;
46355;SDS011;32066;49.474;11.106;2022-10-16T07:06:36;6.47;;;2.17;;
46355;SDS011;32066;49.474;11.106;2022-10-16T07:09:03;5.88;;;1.98;;
46355;SDS011;32066;49.474;11.106;2022-10-16T07:11:32;4.50;;;1.92;;
46355;SDS011;32066;49.474;11.106;2022-10-16T07:13:59;7.40;;;2.30;;
46355;SDS011;32066;49.474;11.106;2022-10-16T07:16:27;5.20;;;2.10;;
46355;SDS011;32066;49.474;11.106;2022-10-16T07:18:55;5.50;;;3.20;;
46355;SDS011;32066;49.474;11.106;2022-10-16T07:21:23;6.35;;;3.50;;
46355;SDS011;32066;49.474;11.106;2022-10-16T07:23:53;7.57;;;3.45;;
46355;SDS011;32066;49.474;11.106;2022-10-16T07:26:21;7.72;;;3.08;;
46355;SDS011;32066;49.474;11.106;2022-10-16T07:28:48;4.50;;;2.50;;
46355;SDS011;32066;49.474;11.106;2022-10-16T07:31:15;4.40;;;2.20;;
46355;SDS011;32066;49.474;11.106;2022-10-16T07:33:44;5.07;;;2.33;;
46355;SDS011;32066;49.474;11.106;2022-10-16T07:36:13;4.32;;;2.47;;
46355;SDS011;32066;49.474;11.106;2022-10-16T07:38:40;4.75;;;2.22;;
46355;SDS011;32066;49.474;11.106;2022-10-16T07:41:10;7.47;;;2.63;;
46355;SDS011;32066;49.474;11.106;2022-10-16T07:43:39;6.63;;;2.50;;
46355;SDS011;32066;49.474;11.106;2022-10-16T07:46:06;5.50;;;2.28;;
46355;SDS011;32066;49.474;11.106;2022-10-16T07:48:34;5.13;;;2.35;;
46355;SDS011;32066;49.474;11.106;2022-10-16T07:51:01;5.47;;;2.25;;
46355;SDS011;32066;49.474;11.106;2022-10-16T07:53:29;5.47;;;2.28;;
46355;SDS011;32066;49.474;11.106;2022-10-16T07:55:57;4.45;;;2.25;;
46355;SDS011;32066;49.474;11.106;2022-10-16T07:58:26;4.47;;;2.05;;
46355;SDS011;32066;49.474;11.106;2022-10-16T08:00:53;7.38;;;2.17;;
46355;SDS011;32066;49.474;11.106;2022-10-16T08:03:20;5.47;;;2.10;;
46355;SDS011;32066;49.474;11.106;2022-10-16T08:05:47;4.70;;;2.25;;
46355;SDS011;32066;49.474;11.106;2022-10-16T08:08:14;6.97;;;2.15;;
46355;SDS011;32066;49.474;11.106;2022-10-16T08:10:42;6.13;;;2.15;;
46355;SDS011;32066;49.474;11.106;2022-10-16T08:13:09;5.63;;;2.20;;
46355;SDS011;32066;49.474;11.106;2022-10-16T08:15:39;4.85;;;1.85;;
46355;SDS011;32066;49.474;11.106;2022-10-16T08:18:05;5.10;;;2.08;;
46355;SDS011;32066;49.474;11.106;2022-10-16T08:20:32;7.78;;;2.05;;
46355;SDS011;32066;49.474;11.106;2022-10-16T08:22:59;6.65;;;2.17;;
46355;SDS011;32066;49.474;11.106;2022-10-16T08:25:27;4.90;;;2.50;;
46355;SDS011;32066;49.474;11.106;2022-10-16T08:27:54;6.03;;;2.50;;
46355;SDS011;32066;49.474;11.106;2022-10-16T08:30:21;7.03;;;2.45;;
46355;SDS011;32066;49.474;11.106;2022-10-16T08:32:50;8.57;;;2.72;;
46355;SDS011;32066;49.474;11.106;2022-10-16T08:35:18;7.05;;;2.70;;
46355;SDS011;32066;49.474;11.106;2022-10-16T08:37:44;8.10;;;2.60;;
46355;SDS011;32066;49.474;11.106;2022-10-16T08:40:17;8.63;;;2.25;;
46355;SDS011;32066;49.474;11.106;2022-10-16T08:42:53;8.00;;;2.30;;
46355;SDS011;32066;49.474;11.106;2022-10-16T08:48:08;6.10;;;2.53;;
46355;SDS011;32066;49.474;11.106;2022-10-16T08:50:41;5.35;;;2.17;;
46355;SDS011;32066;49.474;11.106;2022-10-16T08:53:09;7.68;;;2.60;;
46355;SDS011;32066;49.474;11.106;2022-10-16T08:55:42;5.00;;;2.30;;
46355;SDS011;32066;49.474;11.106;2022-10-16T08:58:12;6.88;;;2.15;;
46355;SDS011;32066;49.474;11.106;2022-10-16T09:00:40;4.35;;;1.92;;
46355;SDS011;32066;49.474;11.106;2022-10-16T09:03:14;6.57;;;2.60;;
46355;SDS011;32066;49.474;11.106;2022-10-16T09:05:52;4.25;;;2.00;;
46355;SDS011;32066;49.474;11.106;2022-10-16T09:08:28;8.10;;;2.38;;
46355;SDS011;32066;49.474;11.106;2022-10-16T09:11:03;6.25;;;2.10;;
46355;SDS011;32066;49.474;11.106;2022-10-16T09:13:41;4.38;;;2.22;;
46355;SDS011;32066;49.474;11.106;2022-10-16T09:16:15;5.93;;;1.92;;
46355;SDS011;32066;49.474;11.106;2022-10-16T09:18:50;9.07;;;1.90;;
46355;SDS011;32066;49.474;11.106;2022-10-16T09:21:24;5.75;;;2.13;;
46355;SDS011;32066;49.474;11.106;2022-10-16T09:23:53;5.22;;;2.10;;
46355;SDS011;32066;49.474;11.106;2022-10-16T09:26:23;6.72;;;2.40;;
46355;SDS011;32066;49.474;11.106;2022-10-16T09:28:51;6.15;;;2.33;;
46355;SDS011;32066;49.474;11.106;2022-10-16T09:31:19;6.57;;;2.92;;
46355;SDS011;32066;49.474;11.106;2022-10-16T09:33:50;8.38;;;3.08;;
46355;SDS011;32066;49.474;11.106;2022-10-16T09:36:20;6.53;;;2.40;;
46355;SDS011;32066;49.474;11.106;2022-10-16T09:38:49;6.85;;;2.53;;
46355;SDS011;32066;49.474;11.106;2022-10-16T09:41:16;7.20;;;1.90;;
46355;SDS011;32066;49.474;11.106;2022-10-16T09:43:49;7.55;;;2.20;;
46355;SDS011;32066;49.474;11.106;2022-10-16T09:46:21;5.85;;;1.90;;
46355;SDS011;32066;49.474;11.106;2022-10-16T09:48:53;4.07;;;1.95;;
46355;SDS011;32066;49.474;11.106;2022-10-16T09:51:23;7.65;;;2.30;;
46355;SDS011;32066;49.474;11.106;2022-10-16T09:53:54;4.65;;;1.70;;
46355;SDS011;32066;49.474;11.106;2022-10-16T09:56:23;5.15;;;1.90;;
46355;SDS011;32066;49.474;11.106;2022-10-16T09:58:52;5.10;;;2.00;;
46355;SDS011;32066;49.474;11.106;2022-10-16T10:01:21;6.28;;;1.95;;
46355;SDS011;32066;49.474;11.106;2022-10-16T10:03:50;4.72;;;2.22;;
46355;SDS011;32066;49.474;11.106;2022-10-16T10:06:27;7.32;;;2.50;;
46355;SDS011;32066;49.474;11.106;2022-10-16T10:09:02;4.57;;;2.22;;
46355;SDS011;32066;49.474;11.106;2022-10-16T10:11:41;5.30;;;1.80;;
46355;SDS011;32066;49.474;11.106;2022-10-16T10:14:26;4.75;;;2.10;;
46355;SDS011;32066;49.474;11.106;2022-10-16T10:17:07;5.00;;;2.00;;
46355;SDS011;32066;49.474;11.106;2022-10-16T10:19:38;8.80;;;2.60;;
46355;SDS011;32066;49.474;11.106;2022-10-16T10:22:15;5.50;;;3.03;;
46355;SDS011;32066;49.474;11.106;2022-10-16T10:24:44;8.95;;;2.40;;
46355;SDS011;32066;49.474;11.106;2022-10-16T10:27:20;14.55;;;2.75;;
46355;SDS011;32066;49.474;11.106;2022-10-16T10:29:51;8.25;;;2.35;;
46355;SDS011;32066;49.474;11.106;2022-10-16T10:32:26;7.20;;;1.77;;
46355;SDS011;32066;49.474;11.106;2022-10-16T10:37:43;5.95;;;1.98;;
46355;SDS011;32066;49.474;11.106;2022-10-16T10:40:23;6.57;;;1.80;;
46355;SDS011;32066;49.474;11.106;2022-10-16T10:43:01;5.07;;;1.88;;
46355;SDS011;32066;49.474;11.106;2022-10-16T10:45:38;5.72;;;2.08;;
46355;SDS011;32066;49.474;11.106;2022-10-16T10:48:24;4.70;;;2.00;;
46355;SDS011;32066;49.474;11.106;2022-10-16T10:51:11;6.13;;;2.20;;
46355;SDS011;32066;49.474;11.106;2022-10-16T10:53:45;6.20;;;1.75;;
46355;SDS011;32066;49.474;11.106;2022-10-16T10:56:22;3.80;;;1.80;;
46355;SDS011;32066;49.474;11.106;2022-10-16T11:01:45;7.63;;;2.17;;
46355;SDS011;32066;49.474;11.106;2022-10-16T11:04:28;13.52;;;2.80;;
46355;SDS011;32066;49.474;11.106;2022-10-16T11:07:11;4.75;;;2.00;;
46355;SDS011;32066;49.474;11.106;2022-10-16T11:09:45;5.75;;;1.95;;
46355;SDS011;32066;49.474;11.106;2022-10-16T11:12:16;4.78;;;2.10;;
46355;SDS011;32066;49.474;11.106;2022-10-16T11:14:48;7.82;;;2.08;;
46355;SDS011;32066;49.474;11.106;2022-10-16T11:17:22;4.40;;;1.92;;
46355;SDS011;32066;49.474;11.106;2022-10-16T11:19:53;5.30;;;1.80;;
46355;SDS011;32066;49.474;11.106;2022-10-16T11:22:25;11.93;;;2.72;;
46355;SDS011;32066;49.474;11.106;2022-10-16T11:24:59;7.30;;;2.10;;
46355;SDS011;32066;49.474;11.106;2022-10-16T11:27:34;5.95;;;1.77;;
46355;SDS011;32066;49.474;11.106;2022-10-16T11:30:05;4.68;;;1.95;;
46355;SDS011;32066;49.474;11.106;2022-10-16T11:32:42;4.88;;;1.95;;
46355;SDS011;32066;49.474;11.106;2022-10-16T11:35:17;5.68;;;2.03;;
46355;SDS011;32066;49.474;11.106;2022-10-16T11:37:49;5.20;;;2.05;;
46355;SDS011;32066;49.474;11.106;2022-10-16T11:40:21;4.78;;;1.80;;
46355;SDS011;32066;49.474;11.106;2022-10-16T11:42:54;5.72;;;2.03;;
46355;SDS011;32066;49.474;11.106;2022-10-16T11:45:26;6.15;;;2.15;;
46355;SDS011;32066;49.474;11.106;2022-10-16T11:48:00;4.38;;;1.90;;
46355;SDS011;32066;49.474;11.106;2022-10-16T11:50:36;6.85;;;2.17;;
46355;SDS011;32066;49.474;11.106;2022-10-16T11:53:08;7.43;;;2.17;;
46355;SDS011;32066;49.474;11.106;2022-10-16T11:55:43;4.75;;;2.05;;
46355;SDS011;32066;49.474;11.106;2022-10-16T11:58:14;6.45;;;1.88;;
46355;SDS011;32066;49.474;11.106;2022-10-16T12:00:51;5.47;;;1.83;;
46355;SDS011;32066;49.474;11.106;2022-10-16T12:03:26;4.10;;;1.70;;
46355;SDS011;32066;49.474;11.106;2022-10-16T12:06:02;3.60;;;1.58;;
46355;SDS011;32066;49.474;11.106;2022-10-16T12:08:39;6.65;;;2.00;;
46355;SDS011;32066;49.474;11.106;2022-10-16T12:11:09;4.40;;;1.90;;
46355;SDS011;32066;49.474;11.106;2022-10-16T12:13:49;9.93;;;2.10;;
46355;SDS011;32066;49.474;11.106;2022-10-16T12:16:22;5.82;;;1.90;;
46355;SDS011;32066;49.474;11.106;2022-10-16T12:18:49;9.05;;;2.80;;
46355;SDS011;32066;49.474;11.106;2022-10-16T12:24:03;4.53;;;2.10;;
46355;SDS011;32066;49.474;11.106;2022-10-16T12:26:32;8.27;;;2.55;;
46355;SDS011;32066;49.474;11.106;2022-10-16T12:29:12;5.88;;;2.30;;
46355;SDS011;32066;49.474;11.106;2022-10-16T12:31:44;5.53;;;2.38;;
46355;SDS011;32066;49.474;11.106;2022-10-16T12:34:14;4.88;;;2.08;;
46355;SDS011;32066;49.474;11.106;2022-10-16T12:36:48;4.55;;;1.73;;
46355;SDS011;32066;49.474;11.106;2022-10-16T12:39:20;6.55;;;2.33;;
46355;SDS011;32066;49.474;11.106;2022-10-16T12:41:59;5.25;;;2.08;;
46355;SDS011;32066;49.474;11.106;2022-10-16T12:44:31;6.13;;;1.83;;
46355;SDS011;32066;49.474;11.106;2022-10-16T12:46:59;4.25;;;1.80;;
46355;SDS011;32066;49.474;11.106;2022-10-16T12:49:30;3.60;;;1.60;;
46355;SDS011;32066;49.474;11.106;2022-10-16T12:52:01;6.85;;;1.98;;
46355;SDS011;32066;49.474;11.106;2022-10-16T12:54:29;5.68;;;2.38;;
46355;SDS011;32066;49.474;11.106;2022-10-16T12:57:18;6.53;;;1.83;;
46355;SDS011;32066;49.474;11.106;2022-10-16T12:59:58;6.22;;;1.83;;
46355;SDS011;32066;49.474;11.106;2022-10-16T13:02:35;5.82;;;2.03;;
46355;SDS011;32066;49.474;11.106;2022-10-16T13:05:18;5.43;;;1.80;;
46355;SDS011;32066;49.474;11.106;2022-10-16T13:07:58;4.13;;;1.88;;
46355;SDS011;32066;49.474;11.106;2022-10-16T13:10:35;5.45;;;1.67;;
46355;SDS011;32066;49.474;11.106;2022-10-16T13:13:26;5.40;;;2.03;;
46355;SDS011;32066;49.474;11.106;2022-10-16T13:16:08;6.00;;;2.30;;
46355;SDS011;32066;49.474;11.106;2022-10-16T13:18:48;6.15;;;1.83;;
46355;SDS011;32066;49.474;11.106;2022-10-16T13:21:28;5.78;;;1.60;;
46355;SDS011;32066;49.474;11.106;2022-10-16T13:24:02;4.32;;;1.80;;
46355;SDS011;32066;49.474;11.106;2022-10-16T13:26:41;5.93;;;1.83;;
46355;SDS011;32066;49.474;11.106;2022-10-16T13:31:44;7.93;;;1.80;;
46355;SDS011;32066;49.474;11.106;2022-10-16T13:34:12;6.15;;;1.67;;
46355;SDS011;32066;49.474;11.106;2022-10-16T13:36:44;3.63;;;1.50;;
46355;SDS011;32066;49.474;11.106;2022-10-16T13:39:12;4.43;;;1.70;;
46355;SDS011;32066;49.474;11.106;2022-10-16T13:41:42;3.78;;;1.70;;
46355;SDS011;32066;49.474;11.106;2022-10-16T13:44:13;8.10;;;2.05;;
46355;SDS011;32066;49.474;11.106;2022-10-16T13:46:45;5.13;;;1.70;;
46355;SDS011;32066;49.474;11.106;2022-10-16T13:49:13;5.68;;;1.90;;
46355;SDS011;32066;49.474;11.106;2022-10-16T13:51:41;8.85;;;1.90;;
46355;SDS011;32066;49.474;11.106;2022-10-16T13:54:20;7.85;;;1.75;;
46355;SDS011;32066;49.474;11.106;2022-10-16T13:56:47;6.75;;;1.63;;
46355;SDS011;32066;49.474;11.106;2022-10-16T13:59:22;3.97;;;1.80;;
46355;SDS011;32066;49.474;11.106;2022-10-16T14:01:52;5.25;;;2.00;;
46355;SDS011;32066;49.474;11.106;2022-10-16T14:04:21;5.28;;;1.90;;
46355;SDS011;32066;49.474;11.106;2022-10-16T14:06:49;7.25;;;1.65;;
46355;SDS011;32066;49.474;11.106;2022-10-16T14:09:20;6.22;;;1.70;;
46355;SDS011;32066;49.474;11.106;2022-10-16T14:11:51;6.25;;;1.58;;
46355;SDS011;32066;49.474;11.106;2022-10-16T14:14:21;5.57;;;1.55;;
46355;SDS011;32066;49.474;11.106;2022-10-16T14:16:48;5.38;;;1.40;;
46355;SDS011;32066;49.474;11.106;2022-10-16T14:19:18;6.70;;;1.70;;
46355;SDS011;32066;49.474;11.106;2022-10-16T14:21:47;7.43;;;1.63;;
46355;SDS011;32066;49.474;11.106;2022-10-16T14:24:22;3.97;;;1.63;;
46355;SDS011;32066;49.474;11.106;2022-10-16T14:26:52;5.03;;;1.70;;
46355;SDS011;32066;49.474;11.106;2022-10-16T14:29:21;3.63;;;1.67;;
46355;SDS011;32066;49.474;11.106;2022-10-16T14:31:55;4.53;;;1.50;;
46355;SDS011;32066;49.474;11.106;2022-10-16T14:34:29;4.93;;;1.60;;
46355;SDS011;32066;49.474;11.106;2022-10-16T14:36:58;7.18;;;1.80;;
46355;SDS011;32066;49.474;11.106;2022-10-16T14:39:29;4.43;;;1.42;;
46355;SDS011;32066;49.474;11.106;2022-10-16T14:41:56;3.92;;;1.70;;
46355;SDS011;32066;49.474;11.106;2022-10-16T14:44:27;7.25;;;1.77;;
46355;SDS011;32066;49.474;11.106;2022-10-16T14:46:57;4.32;;;1.85;;
46355;SDS011;32066;49.474;11.106;2022-10-16T14:49:25;6.28;;;1.85;;
46355;SDS011;32066;49.474;11.106;2022-10-16T14:51:54;4.88;;;1.90;;
46355;SDS011;32066;49.474;11.106;2022-10-16T14:54:22;4.93;;;1.75;;
46355;SDS011;32066;49.474;11.106;2022-10-16T14:56:49;6.70;;;1.80;;
46355;SDS011;32066;49.474;11.106;2022-10-16T14:59:19;7.43;;;2.13;;
46355;SDS011;32066;49.474;11.106;2022-10-16T15:01:50;4.13;;;1.70;;
46355;SDS011;32066;49.474;11.106;2022-10-16T15:04:18;5.18;;;1.80;;